KBKF

Buckley AFB Airport

Aurora, Colorado, USA
METAR KBKF 170258Z 13003KT 10SM CLR 06/M02 A3045 RMK AO2A SLP304 T00551019 52016
Observed Flight Rules
Oct-17 @ 02:58 UTC (57 minutes ago) Visual Flight Rules
Wind Visibility Clouds
130° at 3 knots 10 miles
  • Clear skies
Temperatures Readings
Current 6°C / 43°F
Dewpoint -2°C / 28°F
Humidity 57%
Altimeter 30.45" Hg
Pressure 1030.4 hPa
Elevation 1726
METAR KBKF 170258Z 13003KT 10SM CLR 06/M02 A3045 RMK AO2A SLP304 T00551019 52016
Observed Flight Rules
Oct-17 @ 02:58 UTC
(57 minutes ago)
VFR
Wind Visibility
130° at 3 knots 10 miles
Clouds
  • Clear skies
Temperature Dewpoint
6°C / 43°F -2°C / 28°F
Humidity Altimeter Pressure
57% 30.45" Hg 1030.4 hPa